PWSweather.com
Personal Weather Stations
Station Observations
MENWDWX1
Menstrie, ScotlandGB

MenstrieScotlandGB

Lat: 56.148322, Lon: -3.85483

Elevation: 62

Station Type: Davis Vantage Pro 2

High Low Average
Temperature 31.3°F-0.4°C 17.6°F-8.0°C 22.2°F-5.4°C
Dew Point 25.5°F-3.6°C 13.0°F-10.6°C 17.3°F-8.2°C
Winds 4.6 mph 7.4 kmh Calm Calm 1.0 mph SE1.6 kmh SE
Wind Gusts 6.9 mph11.1 kmh -- 2.0 mph3.2 kmh
Humidity 83% 78% 81%
Pressure 29.46 in997.6 mb 28.98 in981.4 mb -
Precipitation 0.00 in0.0 mm - -
Hour Temp Dew Point Humidity Winds Wind Gusts Pressure Precip Precip Rate Daily Precip Total
12:00 AM 22.7°F-5.2°C 17.7°F-7.9°C 81% 2.3 mph SE3.7 kmh SE 3.5 mph5.6 kmh 29.46 in997.6 mb - 0.00 in0.0 mm 0.00 in0.0 mm
12:05 AM 22.5°F-5.3°C 17.5°F-8.1°C 81% Calm Calm 2.3 mph3.7 kmh 29.46 in997.6 mb - 0.00 in0.0 mm 0.00 in0.0 mm
12:10 AM 22.3°F-5.4°C 17.4°F-8.1°C 81% 2.3 mph SE3.7 kmh SE 2.3 mph3.7 kmh 29.46 in997.6 mb - 0.00 in0.0 mm 0.00 in0.0 mm
12:15 AM 22.2°F-5.4°C 17.3°F-8.2°C 81% 2.3 mph SE3.7 kmh SE 3.5 mph5.6 kmh 29.45 in997.3 mb - 0.00 in0.0 mm 0.00 in0.0 mm
12:20 AM 22.0°F-5.6°C 17.1°F-8.3°C 81% 2.3 mph ENE3.7 kmh ENE 3.5 mph5.6 kmh 29.45 in997.3 mb - 0.00 in0.0 mm 0.00 in0.0 mm
12:25 AM 22.2°F-5.4°C 17.3°F-8.2°C 81% Calm Calm 1.2 mph1.9 kmh 29.44 in997.0 mb - 0.00 in0.0 mm 0.00 in0.0 mm
12:30 AM 22.6°F-5.2°C 18.0°F-7.8°C 82% 2.3 mph N3.7 kmh N 3.5 mph5.6 kmh 29.43 in996.6 mb - 0.00 in0.0 mm 0.00 in0.0 mm
12:35 AM 23.0°F-5.0°C 18.3°F-7.6°C 82% 1.2 mph NNW1.9 kmh NNW 1.2 mph1.9 kmh 29.43 in996.6 mb - 0.00 in0.0 mm 0.00 in0.0 mm
12:40 AM 23.2°F-4.9°C 18.5°F-7.5°C 82% 1.2 mph NNW1.9 kmh NNW 2.3 mph3.7 kmh 29.43 in996.6 mb - 0.00 in0.0 mm 0.00 in0.0 mm
12:45 AM 23.6°F-4.7°C 18.9°F-7.3°C 82% 3.5 mph E5.6 kmh E 5.8 mph9.3 kmh 29.43 in996.6 mb - 0.00 in0.0 mm 0.00 in0.0 mm
12:50 AM 23.6°F-4.7°C 18.9°F-7.3°C 82% 2.3 mph E3.7 kmh E 2.3 mph3.7 kmh 29.42 in996.3 mb - 0.00 in0.0 mm 0.00 in0.0 mm
12:55 AM 23.2°F-4.9°C 18.5°F-7.5°C 82% Calm Calm -- 29.41 in995.9 mb - 0.00 in0.0 mm 0.00 in0.0 mm
01:00 AM 22.8°F-5.1°C 17.9°F-7.8°C 81% 1.2 mph E1.9 kmh E 2.3 mph3.7 kmh 29.41 in995.9 mb - 0.00 in0.0 mm 0.00 in0.0 mm
01:05 AM 22.5°F-5.3°C 17.9°F-7.8°C 82% Calm Calm -- 29.41 in995.9 mb - 0.00 in0.0 mm 0.00 in0.0 mm
01:10 AM 22.4°F-5.3°C 17.5°F-8.1°C 81% Calm Calm -- 29.40 in995.6 mb - 0.00 in0.0 mm 0.00 in0.0 mm
01:15 AM 22.3°F-5.4°C 17.6°F-8.0°C 82% Calm Calm -- 29.40 in995.6 mb - 0.00 in0.0 mm 0.00 in0.0 mm
01:20 AM 22.2°F-5.4°C 17.5°F-8.1°C 82% 1.2 mph E1.9 kmh E 3.5 mph5.6 kmh 29.39 in995.3 mb - 0.00 in0.0 mm 0.00 in0.0 mm
01:25 AM 22.3°F-5.4°C 17.7°F-7.9°C 82% Calm Calm -- 29.39 in995.3 mb - 0.00 in0.0 mm 0.00 in0.0 mm
01:30 AM 22.2°F-5.4°C 17.5°F-8.1°C 82% Calm Calm -- 29.39 in995.3 mb - 0.00 in0.0 mm 0.00 in0.0 mm
01:35 AM 22.0°F-5.6°C 17.3°F-8.2°C 82% Calm Calm 1.2 mph1.9 kmh 29.39 in995.3 mb - 0.00 in0.0 mm 0.00 in0.0 mm
01:40 AM 21.8°F-5.7°C 17.2°F-8.2°C 82% Calm Calm -- 29.38 in994.9 mb - 0.00 in0.0 mm 0.00 in0.0 mm
01:45 AM 21.6°F-5.8°C 16.9°F-8.4°C 82% 2.3 mph SW3.7 kmh SW 3.5 mph5.6 kmh 29.38 in994.9 mb - 0.00 in0.0 mm 0.00 in0.0 mm
01:50 AM 21.3°F-5.9°C 16.7°F-8.5°C 82% Calm Calm -- 29.38 in994.9 mb - 0.00 in0.0 mm 0.00 in0.0 mm
01:55 AM 21.2°F-6.0°C 16.6°F-8.6°C 82% Calm Calm -- 29.38 in994.9 mb - 0.00 in0.0 mm 0.00 in0.0 mm
02:00 AM 21.3°F-5.9°C 16.7°F-8.5°C 82% Calm Calm -- 29.38 in994.9 mb - 0.00 in0.0 mm 0.00 in0.0 mm
02:05 AM 21.4°F-5.9°C 16.7°F-8.5°C 82% 2.3 mph SW3.7 kmh SW 3.5 mph5.6 kmh 29.38 in994.9 mb - 0.00 in0.0 mm 0.00 in0.0 mm
02:10 AM 21.3°F-5.9°C 16.7°F-8.5°C 82% 4.6 mph E7.4 kmh E 6.9 mph11.1 kmh 29.37 in994.6 mb - 0.00 in0.0 mm 0.00 in0.0 mm
02:15 AM 21.4°F-5.9°C 16.8°F-8.4°C 82% 2.3 mph E3.7 kmh E 3.5 mph5.6 kmh 29.37 in994.6 mb - 0.00 in0.0 mm 0.00 in0.0 mm
02:20 AM 21.4°F-5.9°C 16.8°F-8.4°C 82% Calm Calm 1.2 mph1.9 kmh 29.36 in994.2 mb - 0.00 in0.0 mm 0.00 in0.0 mm
02:25 AM 21.2°F-6.0°C 16.6°F-8.6°C 82% 1.2 mph ESE1.9 kmh ESE 2.3 mph3.7 kmh 29.35 in993.9 mb - 0.00 in0.0 mm 0.00 in0.0 mm
02:30 AM 21.2°F-6.0°C 16.6°F-8.6°C 82% 1.2 mph ESE1.9 kmh ESE 1.2 mph1.9 kmh 29.35 in993.9 mb - 0.00 in0.0 mm 0.00 in0.0 mm
02:35 AM 21.5°F-5.8°C 16.8°F-8.4°C 82% 4.6 mph NE7.4 kmh NE 4.6 mph7.4 kmh 29.34 in993.6 mb - 0.00 in0.0 mm 0.00 in0.0 mm
02:40 AM 22.6°F-5.2°C 18.2°F-7.7°C 83% 3.5 mph NE5.6 kmh NE 4.6 mph7.4 kmh 29.34 in993.6 mb - 0.00 in0.0 mm 0.00 in0.0 mm
02:45 AM 23.6°F-4.7°C 19.2°F-7.1°C 83% 3.5 mph W5.6 kmh W 5.8 mph9.3 kmh 29.33 in993.2 mb - 0.00 in0.0 mm 0.00 in0.0 mm
02:50 AM 23.3°F-4.8°C 18.9°F-7.3°C 83% 4.6 mph WSW7.4 kmh WSW 4.6 mph7.4 kmh 29.33 in993.2 mb - 0.00 in0.0 mm 0.00 in0.0 mm
02:55 AM 22.2°F-5.4°C 17.6°F-8.0°C 82% 2.3 mph WSW3.7 kmh WSW 4.6 mph7.4 kmh 29.32 in992.9 mb - 0.00 in0.0 mm 0.00 in0.0 mm
03:00 AM 21.6°F-5.8°C 16.9°F-8.4°C 82% 2.3 mph NW3.7 kmh NW 3.5 mph5.6 kmh 29.32 in992.9 mb - 0.00 in0.0 mm 0.00 in0.0 mm
03:05 AM 21.1°F-6.1°C 16.2°F-8.8°C 81% 2.3 mph W3.7 kmh W 2.3 mph3.7 kmh 29.32 in992.9 mb - 0.00 in0.0 mm 0.00 in0.0 mm
03:10 AM 20.9°F-6.2°C 16.3°F-8.7°C 82% 1.2 mph W1.9 kmh W 1.2 mph1.9 kmh 29.31 in992.6 mb - 0.00 in0.0 mm 0.00 in0.0 mm
03:15 AM 20.8°F-6.2°C 16.2°F-8.8°C 82% 1.2 mph W1.9 kmh W 2.3 mph3.7 kmh 29.30 in992.2 mb - 0.00 in0.0 mm 0.00 in0.0 mm
03:20 AM 20.8°F-6.2°C 16.2°F-8.8°C 82% Calm Calm -- 29.30 in992.2 mb - 0.00 in0.0 mm 0.00 in0.0 mm
03:25 AM 20.7°F-6.3°C 16.1°F-8.8°C 82% 2.3 mph NW3.7 kmh NW 3.5 mph5.6 kmh 29.30 in992.2 mb - 0.00 in0.0 mm 0.00 in0.0 mm
03:30 AM 20.8°F-6.2°C 16.2°F-8.8°C 82% 4.6 mph E7.4 kmh E 4.6 mph7.4 kmh 29.29 in991.9 mb - 0.00 in0.0 mm 0.00 in0.0 mm
03:35 AM 21.0°F-6.1°C 16.4°F-8.7°C 82% 1.2 mph ESE1.9 kmh ESE 2.3 mph3.7 kmh 29.29 in991.9 mb - 0.00 in0.0 mm 0.00 in0.0 mm
03:40 AM 20.8°F-6.2°C 16.2°F-8.8°C 82% Calm Calm -- 29.29 in991.9 mb - 0.00 in0.0 mm 0.00 in0.0 mm
03:45 AM 20.7°F-6.3°C 16.1°F-8.8°C 82% Calm Calm -- 29.28 in991.5 mb - 0.00 in0.0 mm 0.00 in0.0 mm
03:50 AM 20.6°F-6.3°C 16.0°F-8.9°C 82% Calm Calm -- 29.27 in991.2 mb - 0.00 in0.0 mm 0.00 in0.0 mm
03:55 AM 20.5°F-6.4°C 15.8°F-9.0°C 82% Calm Calm -- 29.27 in991.2 mb - 0.00 in0.0 mm 0.00 in0.0 mm
04:00 AM 20.2°F-6.6°C 15.6°F-9.1°C 82% Calm Calm -- 29.26 in990.9 mb - 0.00 in0.0 mm 0.00 in0.0 mm
04:05 AM 20.0°F-6.7°C 15.4°F-9.2°C 82% Calm Calm -- 29.26 in990.9 mb - 0.00 in0.0 mm 0.00 in0.0 mm
04:10 AM 20.0°F-6.7°C 15.4°F-9.2°C 82% Calm Calm -- 29.25 in990.5 mb - 0.00 in0.0 mm 0.00 in0.0 mm
04:15 AM 20.0°F-6.7°C 15.4°F-9.2°C 82% Calm Calm -- 29.25 in990.5 mb - 0.00 in0.0 mm 0.00 in0.0 mm
04:20 AM 20.0°F-6.7°C 15.4°F-9.2°C 82% Calm Calm -- 29.25 in990.5 mb - 0.00 in0.0 mm 0.00 in0.0 mm
04:25 AM 19.8°F-6.8°C 15.2°F-9.3°C 82% Calm Calm -- 29.24 in990.2 mb - 0.00 in0.0 mm 0.00 in0.0 mm
04:30 AM 19.7°F-6.8°C 15.1°F-9.4°C 82% Calm Calm -- 29.24 in990.2 mb - 0.00 in0.0 mm 0.00 in0.0 mm
04:35 AM 19.6°F-6.9°C 15.0°F-9.4°C 82% Calm Calm -- 29.24 in990.2 mb - 0.00 in0.0 mm 0.00 in0.0 mm
04:40 AM 19.4°F-7.0°C 14.8°F-9.6°C 82% Calm Calm -- 29.23 in989.8 mb - 0.00 in0.0 mm 0.00 in0.0 mm
04:45 AM 19.3°F-7.1°C 14.7°F-9.6°C 82% Calm Calm -- 29.23 in989.8 mb - 0.00 in0.0 mm 0.00 in0.0 mm
04:50 AM 19.6°F-6.9°C 15.0°F-9.4°C 82% 2.3 mph E3.7 kmh E 3.5 mph5.6 kmh 29.22 in989.5 mb - 0.00 in0.0 mm 0.00 in0.0 mm
04:55 AM 19.7°F-6.8°C 15.1°F-9.4°C 82% 1.2 mph E1.9 kmh E 2.3 mph3.7 kmh 29.22 in989.5 mb - 0.00 in0.0 mm 0.00 in0.0 mm
05:00 AM 19.8°F-6.8°C 15.2°F-9.3°C 82% 1.2 mph SE1.9 kmh SE 2.3 mph3.7 kmh 29.21 in989.2 mb - 0.00 in0.0 mm 0.00 in0.0 mm
05:05 AM 19.9°F-6.7°C 15.3°F-9.3°C 82% 2.3 mph E3.7 kmh E 3.5 mph5.6 kmh 29.20 in988.8 mb - 0.00 in0.0 mm 0.00 in0.0 mm
05:10 AM 19.7°F-6.8°C 15.1°F-9.4°C 82% 1.2 mph E1.9 kmh E 2.3 mph3.7 kmh 29.20 in988.8 mb - 0.00 in0.0 mm 0.00 in0.0 mm
05:15 AM 19.6°F-6.9°C 15.0°F-9.4°C 82% Calm Calm 1.2 mph1.9 kmh 29.20 in988.8 mb - 0.00 in0.0 mm 0.00 in0.0 mm
05:20 AM 19.7°F-6.8°C 15.4°F-9.2°C 83% 1.2 mph E1.9 kmh E 2.3 mph3.7 kmh 29.19 in988.5 mb - 0.00 in0.0 mm 0.00 in0.0 mm
05:25 AM 19.8°F-6.8°C 15.5°F-9.2°C 83% Calm Calm -- 29.18 in988.1 mb - 0.00 in0.0 mm 0.00 in0.0 mm
05:30 AM 19.8°F-6.8°C 15.2°F-9.3°C 82% 2.3 mph S3.7 kmh S 4.6 mph7.4 kmh 29.18 in988.1 mb - 0.00 in0.0 mm 0.00 in0.0 mm
05:35 AM 19.5°F-6.9°C 14.9°F-9.5°C 82% 1.2 mph SW1.9 kmh SW 2.3 mph3.7 kmh 29.18 in988.1 mb - 0.00 in0.0 mm 0.00 in0.0 mm
05:40 AM 19.3°F-7.1°C 14.7°F-9.6°C 82% Calm Calm -- 29.18 in988.1 mb - 0.00 in0.0 mm 0.00 in0.0 mm
05:45 AM 19.2°F-7.1°C 14.6°F-9.7°C 82% 2.3 mph SW3.7 kmh SW 3.5 mph5.6 kmh 29.18 in988.1 mb - 0.00 in0.0 mm 0.00 in0.0 mm
05:50 AM 19.4°F-7.0°C 14.8°F-9.6°C 82% 1.2 mph SW1.9 kmh SW 2.3 mph3.7 kmh 29.18 in988.1 mb - 0.00 in0.0 mm 0.00 in0.0 mm
05:55 AM 19.6°F-6.9°C 15.3°F-9.3°C 83% 2.3 mph SE3.7 kmh SE 3.5 mph5.6 kmh 29.17 in987.8 mb - 0.00 in0.0 mm 0.00 in0.0 mm
06:00 AM 19.7°F-6.8°C 15.4°F-9.2°C 83% 1.2 mph SE1.9 kmh SE 1.2 mph1.9 kmh 29.17 in987.8 mb - 0.00 in0.0 mm 0.00 in0.0 mm
06:05 AM 19.6°F-6.9°C 15.3°F-9.3°C 83% 1.2 mph SE1.9 kmh SE 3.5 mph5.6 kmh 29.17 in987.8 mb - 0.00 in0.0 mm 0.00 in0.0 mm
06:10 AM 19.7°F-6.8°C 15.4°F-9.2°C 83% 2.3 mph SE3.7 kmh SE 3.5 mph5.6 kmh 29.16 in987.5 mb - 0.00 in0.0 mm 0.00 in0.0 mm
06:15 AM 19.7°F-6.8°C 15.4°F-9.2°C 83% 1.2 mph SE1.9 kmh SE 2.3 mph3.7 kmh 29.16 in987.5 mb - 0.00 in0.0 mm 0.00 in0.0 mm
06:20 AM 19.6°F-6.9°C 15.3°F-9.3°C 83% Calm Calm -- 29.16 in987.5 mb - 0.00 in0.0 mm 0.00 in0.0 mm
06:25 AM 19.5°F-6.9°C 15.1°F-9.4°C 83% 1.2 mph SE1.9 kmh SE 2.3 mph3.7 kmh 29.16 in987.5 mb - 0.00 in0.0 mm 0.00 in0.0 mm
06:30 AM 19.3°F-7.1°C 14.7°F-9.6°C 82% Calm Calm -- 29.15 in987.1 mb - 0.00 in0.0 mm 0.00 in0.0 mm
06:35 AM 19.2°F-7.1°C 14.6°F-9.7°C 82% Calm Calm -- 29.15 in987.1 mb - 0.00 in0.0 mm 0.00 in0.0 mm
06:40 AM 19.1°F-7.2°C 14.5°F-9.7°C 82% Calm Calm -- 29.15 in987.1 mb - 0.00 in0.0 mm 0.00 in0.0 mm
06:45 AM 19.0°F-7.2°C 14.4°F-9.8°C 82% Calm Calm -- 29.14 in986.8 mb - 0.00 in0.0 mm 0.00 in0.0 mm
06:50 AM 19.0°F-7.2°C 14.4°F-9.8°C 82% Calm Calm -- 29.14 in986.8 mb - 0.00 in0.0 mm 0.00 in0.0 mm
06:55 AM 19.0°F-7.2°C 14.4°F-9.8°C 82% Calm Calm 1.2 mph1.9 kmh 29.13 in986.5 mb - 0.00 in0.0 mm 0.00 in0.0 mm
07:00 AM 18.8°F-7.3°C 14.2°F-9.9°C 82% 2.3 mph E3.7 kmh E 3.5 mph5.6 kmh 29.13 in986.5 mb - 0.00 in0.0 mm 0.00 in0.0 mm
07:05 AM 19.0°F-7.2°C 14.7°F-9.6°C 83% Calm Calm 1.2 mph1.9 kmh 29.12 in986.1 mb - 0.00 in0.0 mm 0.00 in0.0 mm
07:10 AM 19.2°F-7.1°C 14.9°F-9.5°C 83% 2.3 mph E3.7 kmh E 3.5 mph5.6 kmh 29.12 in986.1 mb - 0.00 in0.0 mm 0.00 in0.0 mm
07:15 AM 19.5°F-6.9°C 15.2°F-9.3°C 83% Calm Calm -- 29.12 in986.1 mb - 0.00 in0.0 mm 0.00 in0.0 mm
07:20 AM 19.2°F-7.1°C 14.6°F-9.7°C 82% Calm Calm -- 29.12 in986.1 mb - 0.00 in0.0 mm 0.00 in0.0 mm
07:25 AM 18.8°F-7.3°C 14.2°F-9.9°C 82% Calm Calm -- 29.12 in986.1 mb - 0.00 in0.0 mm 0.00 in0.0 mm
07:30 AM 18.5°F-7.5°C 13.9°F-10.1°C 82% Calm Calm -- 29.12 in986.1 mb - 0.00 in0.0 mm 0.00 in0.0 mm
07:35 AM 18.5°F-7.5°C 13.9°F-10.1°C 82% Calm Calm -- 29.12 in986.1 mb - 0.00 in0.0 mm 0.00 in0.0 mm
07:40 AM 18.4°F-7.6°C 13.8°F-10.1°C 82% Calm Calm -- 29.11 in985.8 mb - 0.00 in0.0 mm 0.00 in0.0 mm
07:45 AM 18.3°F-7.6°C 13.7°F-10.2°C 82% Calm Calm -- 29.11 in985.8 mb - 0.00 in0.0 mm 0.00 in0.0 mm
07:50 AM 18.3°F-7.6°C 13.7°F-10.2°C 82% Calm Calm -- 29.11 in985.8 mb - 0.00 in0.0 mm 0.00 in0.0 mm
07:55 AM 18.4°F-7.6°C 13.8°F-10.1°C 82% Calm Calm -- 29.11 in985.8 mb - 0.00 in0.0 mm 0.00 in0.0 mm
08:00 AM 18.5°F-7.5°C 13.9°F-10.1°C 82% Calm Calm -- 29.11 in985.8 mb - 0.00 in0.0 mm 0.00 in0.0 mm
08:05 AM 18.5°F-7.5°C 13.9°F-10.1°C 82% Calm Calm -- 29.10 in985.4 mb - 0.00 in0.0 mm 0.00 in0.0 mm
08:10 AM 18.4°F-7.6°C 13.8°F-10.1°C 82% Calm Calm -- 29.10 in985.4 mb - 0.00 in0.0 mm 0.00 in0.0 mm
08:15 AM 18.3°F-7.6°C 14.0°F-10.0°C 83% Calm Calm -- 29.10 in985.4 mb - 0.00 in0.0 mm 0.00 in0.0 mm
08:20 AM 18.2°F-7.7°C 13.9°F-10.1°C 83% Calm Calm -- 29.09 in985.1 mb - 0.00 in0.0 mm 0.00 in0.0 mm
08:25 AM 18.0°F-7.8°C 13.4°F-10.3°C 82% Calm Calm 2.3 mph3.7 kmh 29.10 in985.4 mb - 0.00 in0.0 mm 0.00 in0.0 mm
08:30 AM 18.0°F-7.8°C 13.4°F-10.3°C 82% Calm Calm 2.3 mph3.7 kmh 29.09 in985.1 mb - 0.00 in0.0 mm 0.00 in0.0 mm
08:35 AM 17.8°F-7.9°C 13.2°F-10.4°C 82% Calm Calm -- 29.09 in985.1 mb - 0.00 in0.0 mm 0.00 in0.0 mm
08:40 AM 18.0°F-7.8°C 13.7°F-10.2°C 83% 2.3 mph E3.7 kmh E 2.3 mph3.7 kmh 29.09 in985.1 mb - 0.00 in0.0 mm 0.00 in0.0 mm
08:45 AM 18.0°F-7.8°C 13.7°F-10.2°C 83% 2.3 mph E3.7 kmh E 3.5 mph5.6 kmh 29.09 in985.1 mb - 0.00 in0.0 mm 0.00 in0.0 mm
08:50 AM 18.1°F-7.7°C 13.8°F-10.1°C 83% Calm Calm 3.5 mph5.6 kmh 29.09 in985.1 mb - 0.00 in0.0 mm 0.00 in0.0 mm
08:55 AM 18.3°F-7.6°C 14.0°F-10.0°C 83% 2.3 mph ENE3.7 kmh ENE 3.5 mph5.6 kmh 29.09 in985.1 mb - 0.00 in0.0 mm 0.00 in0.0 mm
09:00 AM 18.5°F-7.5°C 14.2°F-9.9°C 83% 1.2 mph NE1.9 kmh NE 2.3 mph3.7 kmh 29.08 in984.8 mb - 0.00 in0.0 mm 0.00 in0.0 mm
09:05 AM 18.5°F-7.5°C 14.2°F-9.9°C 83% Calm Calm 1.2 mph1.9 kmh 29.09 in985.1 mb - 0.00 in0.0 mm 0.00 in0.0 mm
09:10 AM 18.4°F-7.6°C 13.8°F-10.1°C 82% Calm Calm -- 29.08 in984.8 mb - 0.00 in0.0 mm 0.00 in0.0 mm
09:15 AM 18.4°F-7.6°C 13.8°F-10.1°C 82% Calm Calm -- 29.08 in984.8 mb - 0.00 in0.0 mm 0.00 in0.0 mm
09:20 AM 18.3°F-7.6°C 13.7°F-10.2°C 82% 1.2 mph SW1.9 kmh SW 3.5 mph5.6 kmh 29.08 in984.8 mb - 0.00 in0.0 mm 0.00 in0.0 mm
09:25 AM 18.2°F-7.7°C 13.6°F-10.2°C 82% 1.2 mph SW1.9 kmh SW 2.3 mph3.7 kmh 29.07 in984.4 mb - 0.00 in0.0 mm 0.00 in0.0 mm
09:30 AM 18.4°F-7.6°C 13.8°F-10.1°C 82% 3.5 mph SW5.6 kmh SW 3.5 mph5.6 kmh 29.07 in984.4 mb - 0.00 in0.0 mm 0.00 in0.0 mm
09:35 AM 18.5°F-7.5°C 13.9°F-10.1°C 82% 1.2 mph SW1.9 kmh SW 1.2 mph1.9 kmh 29.07 in984.4 mb - 0.00 in0.0 mm 0.00 in0.0 mm
09:40 AM 18.5°F-7.5°C 13.9°F-10.1°C 82% 1.2 mph SW1.9 kmh SW 3.5 mph5.6 kmh 29.07 in984.4 mb - 0.00 in0.0 mm 0.00 in0.0 mm
09:45 AM 18.5°F-7.5°C 13.9°F-10.1°C 82% Calm Calm 2.3 mph3.7 kmh 29.07 in984.4 mb - 0.00 in0.0 mm 0.00 in0.0 mm
09:50 AM 18.5°F-7.5°C 13.9°F-10.1°C 82% Calm Calm 2.3 mph3.7 kmh 29.07 in984.4 mb - 0.00 in0.0 mm 0.00 in0.0 mm
09:55 AM 18.6°F-7.4°C 14.0°F-10.0°C 82% 1.2 mph SW1.9 kmh SW 1.2 mph1.9 kmh 29.07 in984.4 mb - 0.00 in0.0 mm 0.00 in0.0 mm
10:00 AM 18.9°F-7.3°C 14.6°F-9.7°C 83% 2.3 mph S3.7 kmh S 3.5 mph5.6 kmh 29.06 in984.1 mb - 0.00 in0.0 mm 0.00 in0.0 mm
10:05 AM 19.1°F-7.2°C 14.8°F-9.6°C 83% Calm Calm 1.2 mph1.9 kmh 29.07 in984.4 mb - 0.00 in0.0 mm 0.00 in0.0 mm
10:10 AM 19.1°F-7.2°C 14.5°F-9.7°C 82% 1.2 mph S1.9 kmh S 2.3 mph3.7 kmh 29.06 in984.1 mb - 0.00 in0.0 mm 0.00 in0.0 mm
10:15 AM 19.3°F-7.1°C 14.7°F-9.6°C 82% Calm Calm 1.2 mph1.9 kmh 29.06 in984.1 mb - 0.00 in0.0 mm 0.00 in0.0 mm
10:20 AM 19.4°F-7.0°C 14.8°F-9.6°C 82% 1.2 mph S1.9 kmh S 2.3 mph3.7 kmh 29.06 in984.1 mb - 0.00 in0.0 mm 0.00 in0.0 mm
10:25 AM 19.5°F-6.9°C 15.2°F-9.3°C 83% 1.2 mph S1.9 kmh S 1.2 mph1.9 kmh 29.06 in984.1 mb - 0.00 in0.0 mm 0.00 in0.0 mm
10:30 AM 19.7°F-6.8°C 15.4°F-9.2°C 83% Calm Calm 2.3 mph3.7 kmh 29.06 in984.1 mb - 0.00 in0.0 mm 0.00 in0.0 mm
10:35 AM 19.9°F-6.7°C 15.5°F-9.2°C 83% Calm Calm -- 29.06 in984.1 mb - 0.00 in0.0 mm 0.00 in0.0 mm
10:40 AM 20.0°F-6.7°C 15.7°F-9.1°C 83% Calm Calm -- 29.05 in983.7 mb - 0.00 in0.0 mm 0.00 in0.0 mm
10:45 AM 20.3°F-6.5°C 16.0°F-8.9°C 83% Calm Calm -- 29.05 in983.7 mb - 0.00 in0.0 mm 0.00 in0.0 mm
10:50 AM 20.5°F-6.4°C 16.2°F-8.8°C 83% Calm Calm -- 29.05 in983.7 mb - 0.00 in0.0 mm 0.00 in0.0 mm
10:55 AM 20.7°F-6.3°C 16.4°F-8.7°C 83% 1.2 mph S1.9 kmh S 2.3 mph3.7 kmh 29.05 in983.7 mb - 0.00 in0.0 mm 0.00 in0.0 mm
11:00 AM 21.0°F-6.1°C 16.7°F-8.5°C 83% Calm Calm -- 29.05 in983.7 mb - 0.00 in0.0 mm 0.00 in0.0 mm
11:05 AM 21.2°F-6.0°C 16.8°F-8.4°C 83% 1.2 mph S1.9 kmh S 2.3 mph3.7 kmh 29.05 in983.7 mb - 0.00 in0.0 mm 0.00 in0.0 mm
11:10 AM 21.5°F-5.8°C 17.1°F-8.3°C 83% Calm Calm 1.2 mph1.9 kmh 29.05 in983.7 mb - 0.00 in0.0 mm 0.00 in0.0 mm
11:15 AM 21.6°F-5.8°C 17.3°F-8.2°C 83% Calm Calm -- 29.04 in983.4 mb - 0.00 in0.0 mm 0.00 in0.0 mm
11:20 AM 21.9°F-5.6°C 17.5°F-8.1°C 83% 1.2 mph S1.9 kmh S 1.2 mph1.9 kmh 29.04 in983.4 mb - 0.00 in0.0 mm 0.00 in0.0 mm
11:25 AM 22.4°F-5.3°C 18.0°F-7.8°C 83% Calm Calm -- 29.04 in983.4 mb - 0.00 in0.0 mm 0.00 in0.0 mm
11:30 AM 23.4°F-4.8°C 19.0°F-7.2°C 83% Calm Calm -- 29.04 in983.4 mb - 0.00 in0.0 mm 0.00 in0.0 mm
11:35 AM 24.2°F-4.3°C 19.8°F-6.8°C 83% Calm Calm -- 29.04 in983.4 mb - 0.00 in0.0 mm 0.00 in0.0 mm
11:40 AM 24.6°F-4.1°C 20.1°F-6.6°C 83% Calm Calm -- 29.04 in983.4 mb - 0.00 in0.0 mm 0.00 in0.0 mm
11:45 AM 25.1°F-3.8°C 20.4°F-6.4°C 82% Calm Calm -- 29.04 in983.4 mb - 0.00 in0.0 mm 0.00 in0.0 mm
11:50 AM 24.8°F-4.0°C 20.1°F-6.6°C 82% Calm Calm -- 29.03 in983.1 mb - 0.00 in0.0 mm 0.00 in0.0 mm
11:55 AM 25.1°F-3.8°C 20.0°F-6.7°C 81% Calm Calm -- 29.03 in983.1 mb - 0.00 in0.0 mm 0.00 in0.0 mm
12:00 PM 25.9°F-3.4°C 20.9°F-6.2°C 81% Calm Calm -- 29.03 in983.1 mb - 0.00 in0.0 mm 0.00 in0.0 mm
12:05 PM 26.9°F-2.8°C 21.8°F-5.7°C 81% Calm Calm -- 29.02 in982.7 mb - 0.00 in0.0 mm 0.00 in0.0 mm
12:10 PM 27.5°F-2.5°C 22.5°F-5.3°C 81% Calm Calm 1.2 mph1.9 kmh 29.02 in982.7 mb - 0.00 in0.0 mm 0.00 in0.0 mm
12:15 PM 27.8°F-2.3°C 22.4°F-5.3°C 80% 2.3 mph S3.7 kmh S 3.5 mph5.6 kmh 29.02 in982.7 mb - 0.00 in0.0 mm 0.00 in0.0 mm
12:20 PM 27.9°F-2.3°C 22.5°F-5.3°C 80% Calm Calm -- 29.02 in982.7 mb - 0.00 in0.0 mm 0.00 in0.0 mm
12:25 PM 28.1°F-2.2°C 22.5°F-5.3°C 79% Calm Calm -- 29.02 in982.7 mb - 0.00 in0.0 mm 0.00 in0.0 mm
12:30 PM 28.3°F-2.1°C 22.6°F-5.2°C 79% Calm Calm -- 29.02 in982.7 mb - 0.00 in0.0 mm 0.00 in0.0 mm
12:35 PM 28.7°F-1.8°C 23.0°F-5.0°C 79% Calm Calm 2.3 mph3.7 kmh 29.02 in982.7 mb - 0.00 in0.0 mm 0.00 in0.0 mm
12:40 PM 29.0°F-1.7°C 23.3°F-4.8°C 79% Calm Calm -- 29.02 in982.7 mb - 0.00 in0.0 mm 0.00 in0.0 mm
12:45 PM 29.0°F-1.7°C 23.3°F-4.8°C 79% 1.2 mph SW1.9 kmh SW 2.3 mph3.7 kmh 29.01 in982.4 mb - 0.00 in0.0 mm 0.00 in0.0 mm
12:50 PM 29.5°F-1.4°C 23.8°F-4.6°C 79% Calm Calm -- 29.01 in982.4 mb - 0.00 in0.0 mm 0.00 in0.0 mm
12:55 PM 30.1°F-1.1°C 24.4°F-4.2°C 79% 2.3 mph W3.7 kmh W 2.3 mph3.7 kmh 29.01 in982.4 mb - 0.00 in0.0 mm 0.00 in0.0 mm
01:00 PM 30.5°F-0.8°C 24.8°F-4.0°C 79% Calm Calm 1.2 mph1.9 kmh 29.01 in982.4 mb - 0.00 in0.0 mm 0.00 in0.0 mm
01:05 PM 30.9°F-0.6°C 25.2°F-3.8°C 79% Calm Calm -- 29.01 in982.4 mb - 0.00 in0.0 mm 0.00 in0.0 mm
01:10 PM 31.3°F-0.4°C 25.5°F-3.6°C 79% Calm Calm -- 29.01 in982.4 mb - 0.00 in0.0 mm 0.00 in0.0 mm
01:15 PM 30.9°F-0.6°C 25.2°F-3.8°C 79% Calm Calm -- 29.00 in982.1 mb - 0.00 in0.0 mm 0.00 in0.0 mm
01:20 PM 30.4°F-0.9°C 24.7°F-4.1°C 79% 2.3 mph E3.7 kmh E 3.5 mph5.6 kmh 29.00 in982.1 mb - 0.00 in0.0 mm 0.00 in0.0 mm
01:25 PM 30.1°F-1.1°C 24.4°F-4.2°C 79% 1.2 mph E1.9 kmh E 2.3 mph3.7 kmh 29.00 in982.1 mb - 0.00 in0.0 mm 0.00 in0.0 mm
01:30 PM 30.1°F-1.1°C 24.4°F-4.2°C 79% 1.2 mph E1.9 kmh E 2.3 mph3.7 kmh 29.00 in982.1 mb - 0.00 in0.0 mm 0.00 in0.0 mm
01:35 PM 29.9°F-1.2°C 24.2°F-4.3°C 79% Calm Calm -- 29.00 in982.1 mb - 0.00 in0.0 mm 0.00 in0.0 mm
01:40 PM 29.7°F-1.3°C 24.0°F-4.4°C 79% Calm Calm 1.2 mph1.9 kmh 29.00 in982.1 mb - 0.00 in0.0 mm 0.00 in0.0 mm
01:45 PM 29.6°F-1.3°C 23.9°F-4.5°C 79% Calm Calm -- 29.00 in982.1 mb - 0.00 in0.0 mm 0.00 in0.0 mm
01:50 PM 29.6°F-1.3°C 23.9°F-4.5°C 79% 1.2 mph SW1.9 kmh SW 1.2 mph1.9 kmh 29.00 in982.1 mb - 0.00 in0.0 mm 0.00 in0.0 mm
01:55 PM 29.7°F-1.3°C 23.9°F-4.5°C 79% Calm Calm -- 29.00 in982.1 mb - 0.00 in0.0 mm 0.00 in0.0 mm
02:00 PM 29.6°F-1.3°C 23.9°F-4.5°C 79% Calm Calm -- 28.99 in981.7 mb - 0.00 in0.0 mm 0.00 in0.0 mm
02:05 PM 29.9°F-1.2°C 24.2°F-4.3°C 79% 1.2 mph WNW1.9 kmh WNW 1.2 mph1.9 kmh 28.99 in981.7 mb - 0.00 in0.0 mm 0.00 in0.0 mm
02:10 PM 30.7°F-0.7°C 25.0°F-3.9°C 79% 2.3 mph W3.7 kmh W 2.3 mph3.7 kmh 28.99 in981.7 mb - 0.00 in0.0 mm 0.00 in0.0 mm
02:15 PM 31.0°F-0.6°C 25.3°F-3.7°C 79% 1.2 mph WNW1.9 kmh WNW 2.3 mph3.7 kmh 28.99 in981.7 mb - 0.00 in0.0 mm 0.00 in0.0 mm
02:20 PM 31.3°F-0.4°C 25.3°F-3.7°C 78% 1.2 mph WNW1.9 kmh WNW 3.5 mph5.6 kmh 28.99 in981.7 mb - 0.00 in0.0 mm 0.00 in0.0 mm
02:25 PM 31.3°F-0.4°C 25.2°F-3.8°C 78% 2.3 mph NW3.7 kmh NW 3.5 mph5.6 kmh 28.99 in981.7 mb - 0.00 in0.0 mm 0.00 in0.0 mm
02:30 PM 30.9°F-0.6°C 24.8°F-4.0°C 78% Calm Calm -- 28.99 in981.7 mb - 0.00 in0.0 mm 0.00 in0.0 mm
02:35 PM 30.7°F-0.7°C 24.7°F-4.1°C 78% 1.2 mph E1.9 kmh E 1.2 mph1.9 kmh 28.99 in981.7 mb - 0.00 in0.0 mm 0.00 in0.0 mm
02:40 PM 30.4°F-0.9°C 24.4°F-4.2°C 78% Calm Calm -- 28.99 in981.7 mb - 0.00 in0.0 mm 0.00 in0.0 mm
02:45 PM 30.3°F-0.9°C 24.3°F-4.3°C 78% Calm Calm -- 28.99 in981.7 mb - 0.00 in0.0 mm 0.00 in0.0 mm
02:50 PM 30.1°F-1.1°C 24.1°F-4.4°C 78% 2.3 mph ENE3.7 kmh ENE 3.5 mph5.6 kmh 28.99 in981.7 mb - 0.00 in0.0 mm 0.00 in0.0 mm
02:55 PM 29.7°F-1.3°C 24.0°F-4.4°C 79% 1.2 mph ENE1.9 kmh ENE 3.5 mph5.6 kmh 28.99 in981.7 mb - 0.00 in0.0 mm 0.00 in0.0 mm
03:00 PM 29.3°F-1.5°C 23.6°F-4.7°C 79% Calm Calm 1.2 mph1.9 kmh 28.99 in981.7 mb - 0.00 in0.0 mm 0.00 in0.0 mm
03:05 PM 29.0°F-1.7°C 23.3°F-4.8°C 79% 1.2 mph ENE1.9 kmh ENE 2.3 mph3.7 kmh 28.99 in981.7 mb - 0.00 in0.0 mm 0.00 in0.0 mm
03:10 PM 28.8°F-1.8°C 23.1°F-4.9°C 79% 1.2 mph ENE1.9 kmh ENE 2.3 mph3.7 kmh 28.98 in981.4 mb - 0.00 in0.0 mm 0.00 in0.0 mm
03:15 PM 28.6°F-1.9°C 22.9°F-5.1°C 79% Calm Calm -- 28.99 in981.7 mb - 0.00 in0.0 mm 0.00 in0.0 mm
03:20 PM 28.4°F-2.0°C 22.7°F-5.2°C 79% Calm Calm -- 28.99 in981.7 mb - 0.00 in0.0 mm 0.00 in0.0 mm
03:25 PM 28.3°F-2.1°C 22.6°F-5.2°C 79% Calm Calm -- 28.99 in981.7 mb - 0.00 in0.0 mm 0.00 in0.0 mm
03:30 PM 28.2°F-2.1°C 22.5°F-5.3°C 79% 2.3 mph ENE3.7 kmh ENE 3.5 mph5.6 kmh 28.99 in981.7 mb - 0.00 in0.0 mm 0.00 in0.0 mm
03:35 PM 28.1°F-2.2°C 22.4°F-5.3°C 79% 1.2 mph NE1.9 kmh NE 3.5 mph5.6 kmh 28.99 in981.7 mb - 0.00 in0.0 mm 0.00 in0.0 mm
03:40 PM 27.8°F-2.3°C 22.2°F-5.4°C 79% 1.2 mph NE1.9 kmh NE 1.2 mph1.9 kmh 28.99 in981.7 mb - 0.00 in0.0 mm 0.00 in0.0 mm
03:45 PM 27.6°F-2.4°C 21.9°F-5.6°C 79% 1.2 mph NE1.9 kmh NE 3.5 mph5.6 kmh 28.99 in981.7 mb - 0.00 in0.0 mm 0.00 in0.0 mm
03:50 PM 27.3°F-2.6°C 21.7°F-5.7°C 79% 1.2 mph NE1.9 kmh NE 2.3 mph3.7 kmh 28.99 in981.7 mb - 0.00 in0.0 mm 0.00 in0.0 mm
03:55 PM 27.1°F-2.7°C 21.5°F-5.8°C 79% 2.3 mph NE3.7 kmh NE 3.5 mph5.6 kmh 28.99 in981.7 mb - 0.00 in0.0 mm 0.00 in0.0 mm
04:00 PM 26.9°F-2.8°C 21.3°F-5.9°C 79% 1.2 mph NE1.9 kmh NE 3.5 mph5.6 kmh 28.99 in981.7 mb - 0.00 in0.0 mm 0.00 in0.0 mm
04:05 PM 26.5°F-3.1°C 20.9°F-6.2°C 79% 1.2 mph NE1.9 kmh NE 2.3 mph3.7 kmh 28.99 in981.7 mb - 0.00 in0.0 mm 0.00 in0.0 mm
04:10 PM 26.2°F-3.2°C 20.6°F-6.3°C 79% Calm Calm -- 28.99 in981.7 mb - 0.00 in0.0 mm 0.00 in0.0 mm
04:15 PM 25.9°F-3.4°C 20.3°F-6.5°C 79% 1.2 mph NE1.9 kmh NE 2.3 mph3.7 kmh 28.99 in981.7 mb - 0.00 in0.0 mm 0.00 in0.0 mm
04:20 PM 25.7°F-3.5°C 20.1°F-6.6°C 79% Calm Calm -- 28.99 in981.7 mb - 0.00 in0.0 mm 0.00 in0.0 mm
04:25 PM 25.6°F-3.6°C 20.0°F-6.7°C 79% 2.3 mph N3.7 kmh N 4.6 mph7.4 kmh 28.99 in981.7 mb - 0.00 in0.0 mm 0.00 in0.0 mm
04:30 PM 25.3°F-3.7°C 19.7°F-6.8°C 79% 1.2 mph WNW1.9 kmh WNW 2.3 mph3.7 kmh 28.99 in981.7 mb - 0.00 in0.0 mm 0.00 in0.0 mm
04:35 PM 25.2°F-3.8°C 19.6°F-6.9°C 79% 2.3 mph N3.7 kmh N 3.5 mph5.6 kmh 28.99 in981.7 mb - 0.00 in0.0 mm 0.00 in0.0 mm
04:40 PM 25.2°F-3.8°C 19.6°F-6.9°C 79% 2.3 mph N3.7 kmh N 3.5 mph5.6 kmh 28.99 in981.7 mb - 0.00 in0.0 mm 0.00 in0.0 mm
04:45 PM 25.1°F-3.8°C 19.5°F-6.9°C 79% Calm Calm -- 29.00 in982.1 mb - 0.00 in0.0 mm 0.00 in0.0 mm
04:50 PM 24.8°F-4.0°C 19.2°F-7.1°C 79% Calm Calm -- 29.00 in982.1 mb - 0.00 in0.0 mm 0.00 in0.0 mm
04:55 PM 24.6°F-4.1°C 19.3°F-7.1°C 80% Calm Calm -- 29.00 in982.1 mb - 0.00 in0.0 mm 0.00 in0.0 mm
05:00 PM 24.3°F-4.3°C 18.7°F-7.4°C 79% Calm Calm -- 29.00 in982.1 mb - 0.00 in0.0 mm 0.00 in0.0 mm
05:05 PM 24.2°F-4.3°C 18.9°F-7.3°C 80% Calm Calm -- 29.00 in982.1 mb - 0.00 in0.0 mm 0.00 in0.0 mm
05:10 PM 24.1°F-4.4°C 18.8°F-7.3°C 80% Calm Calm -- 29.00 in982.1 mb - 0.00 in0.0 mm 0.00 in0.0 mm
05:15 PM 23.9°F-4.5°C 18.6°F-7.4°C 80% Calm Calm -- 29.00 in982.1 mb - 0.00 in0.0 mm 0.00 in0.0 mm
05:20 PM 23.6°F-4.7°C 18.3°F-7.6°C 80% Calm Calm -- 29.00 in982.1 mb - 0.00 in0.0 mm 0.00 in0.0 mm
05:25 PM 23.4°F-4.8°C 18.1°F-7.7°C 80% Calm Calm -- 29.00 in982.1 mb - 0.00 in0.0 mm 0.00 in0.0 mm
05:30 PM 23.2°F-4.9°C 18.0°F-7.8°C 80% Calm Calm -- 29.00 in982.1 mb - 0.00 in0.0 mm 0.00 in0.0 mm
05:35 PM 23.1°F-4.9°C 17.8°F-7.9°C 80% Calm Calm -- 29.00 in982.1 mb - 0.00 in0.0 mm 0.00 in0.0 mm
05:40 PM 23.0°F-5.0°C 17.7°F-7.9°C 80% Calm Calm -- 29.00 in982.1 mb - 0.00 in0.0 mm 0.00 in0.0 mm
05:45 PM 22.8°F-5.1°C 17.5°F-8.1°C 80% Calm Calm -- 29.01 in982.4 mb - 0.00 in0.0 mm 0.00 in0.0 mm
05:50 PM 22.6°F-5.2°C 17.4°F-8.1°C 80% Calm Calm -- 29.01 in982.4 mb - 0.00 in0.0 mm 0.00 in0.0 mm
05:55 PM 22.5°F-5.3°C 17.3°F-8.2°C 80% Calm Calm -- 29.01 in982.4 mb - 0.00 in0.0 mm 0.00 in0.0 mm
06:00 PM 22.5°F-5.3°C 17.3°F-8.2°C 80% Calm Calm -- 29.01 in982.4 mb - 0.00 in0.0 mm 0.00 in0.0 mm
06:05 PM 22.5°F-5.3°C 17.3°F-8.2°C 80% Calm Calm -- 29.01 in982.4 mb - 0.00 in0.0 mm 0.00 in0.0 mm
06:10 PM 22.4°F-5.3°C 17.2°F-8.2°C 80% Calm Calm -- 29.01 in982.4 mb - 0.00 in0.0 mm 0.00 in0.0 mm
06:15 PM 22.5°F-5.3°C 17.3°F-8.2°C 80% Calm Calm -- 29.01 in982.4 mb - 0.00 in0.0 mm 0.00 in0.0 mm
06:20 PM 22.6°F-5.2°C 17.6°F-8.0°C 81% Calm Calm -- 29.01 in982.4 mb - 0.00 in0.0 mm 0.00 in0.0 mm
06:25 PM 22.6°F-5.2°C 17.6°F-8.0°C 81% Calm Calm -- 29.02 in982.7 mb - 0.00 in0.0 mm 0.00 in0.0 mm
06:30 PM 22.7°F-5.2°C 17.8°F-7.9°C 81% Calm Calm -- 29.02 in982.7 mb - 0.00 in0.0 mm 0.00 in0.0 mm
06:35 PM 22.9°F-5.1°C 17.9°F-7.8°C 81% Calm Calm -- 29.02 in982.7 mb - 0.00 in0.0 mm 0.00 in0.0 mm
06:40 PM 22.6°F-5.2°C 17.7°F-7.9°C 81% 1.2 mph ENE1.9 kmh ENE 3.5 mph5.6 kmh 29.02 in982.7 mb - 0.00 in0.0 mm 0.00 in0.0 mm
06:45 PM 22.7°F-5.2°C 17.7°F-7.9°C 81% 2.3 mph NNE3.7 kmh NNE 3.5 mph5.6 kmh 29.02 in982.7 mb - 0.00 in0.0 mm 0.00 in0.0 mm
06:50 PM 22.6°F-5.2°C 17.6°F-8.0°C 81% 3.5 mph NE5.6 kmh NE 3.5 mph5.6 kmh 29.02 in982.7 mb - 0.00 in0.0 mm 0.00 in0.0 mm
06:55 PM 22.6°F-5.2°C 17.6°F-8.0°C 81% 2.3 mph NE3.7 kmh NE 3.5 mph5.6 kmh 29.02 in982.7 mb - 0.00 in0.0 mm 0.00 in0.0 mm
07:00 PM 22.7°F-5.2°C 17.7°F-7.9°C 81% 2.3 mph NE3.7 kmh NE 3.5 mph5.6 kmh 29.02 in982.7 mb - 0.00 in0.0 mm 0.00 in0.0 mm
07:05 PM 22.5°F-5.3°C 17.6°F-8.0°C 81% 1.2 mph NE1.9 kmh NE 3.5 mph5.6 kmh 29.02 in982.7 mb - 0.00 in0.0 mm 0.00 in0.0 mm
07:10 PM 22.3°F-5.4°C 17.4°F-8.1°C 81% 2.3 mph NE3.7 kmh NE 3.5 mph5.6 kmh 29.02 in982.7 mb - 0.00 in0.0 mm 0.00 in0.0 mm
07:15 PM 22.2°F-5.4°C 17.3°F-8.2°C 81% 1.2 mph NE1.9 kmh NE 3.5 mph5.6 kmh 29.02 in982.7 mb - 0.00 in0.0 mm 0.00 in0.0 mm
07:20 PM 22.3°F-5.4°C 17.4°F-8.1°C 81% 3.5 mph NE5.6 kmh NE 3.5 mph5.6 kmh 29.02 in982.7 mb - 0.00 in0.0 mm 0.00 in0.0 mm
07:25 PM 22.2°F-5.4°C 17.3°F-8.2°C 81% 2.3 mph NE3.7 kmh NE 3.5 mph5.6 kmh 29.02 in982.7 mb - 0.00 in0.0 mm 0.00 in0.0 mm
07:30 PM 22.4°F-5.3°C 17.5°F-8.1°C 81% 1.2 mph N1.9 kmh N 2.3 mph3.7 kmh 29.03 in983.1 mb - 0.00 in0.0 mm 0.00 in0.0 mm
07:35 PM 22.6°F-5.2°C 17.6°F-8.0°C 81% 1.2 mph N1.9 kmh N 3.5 mph5.6 kmh 29.03 in983.1 mb - 0.00 in0.0 mm 0.00 in0.0 mm
07:40 PM 22.4°F-5.3°C 17.4°F-8.1°C 81% 1.2 mph N1.9 kmh N 3.5 mph5.6 kmh 29.03 in983.1 mb - 0.00 in0.0 mm 0.00 in0.0 mm
07:45 PM 21.9°F-5.6°C 16.9°F-8.4°C 81% 1.2 mph N1.9 kmh N 2.3 mph3.7 kmh 29.03 in983.1 mb - 0.00 in0.0 mm 0.00 in0.0 mm
07:50 PM 21.4°F-5.9°C 16.5°F-8.6°C 81% 1.2 mph N1.9 kmh N 1.2 mph1.9 kmh 29.03 in983.1 mb - 0.00 in0.0 mm 0.00 in0.0 mm
07:55 PM 21.1°F-6.1°C 16.2°F-8.8°C 81% Calm Calm 3.5 mph5.6 kmh 29.03 in983.1 mb - 0.00 in0.0 mm 0.00 in0.0 mm
08:00 PM 21.2°F-6.0°C 16.3°F-8.7°C 81% 3.5 mph N5.6 kmh N 5.8 mph9.3 kmh 29.03 in983.1 mb - 0.00 in0.0 mm 0.00 in0.0 mm
08:05 PM 21.5°F-5.8°C 16.6°F-8.6°C 81% 1.2 mph N1.9 kmh N 2.3 mph3.7 kmh 29.03 in983.1 mb - 0.00 in0.0 mm 0.00 in0.0 mm
08:10 PM 21.1°F-6.1°C 16.2°F-8.8°C 81% 2.3 mph N3.7 kmh N 2.3 mph3.7 kmh 29.03 in983.1 mb - 0.00 in0.0 mm 0.00 in0.0 mm
08:15 PM 20.8°F-6.2°C 15.9°F-8.9°C 81% 2.3 mph N3.7 kmh N 3.5 mph5.6 kmh 29.03 in983.1 mb - 0.00 in0.0 mm 0.00 in0.0 mm
08:20 PM 20.6°F-6.3°C 15.7°F-9.1°C 81% 2.3 mph N3.7 kmh N 3.5 mph5.6 kmh 29.03 in983.1 mb - 0.00 in0.0 mm 0.00 in0.0 mm
08:25 PM 20.5°F-6.4°C 15.6°F-9.1°C 81% 1.2 mph N1.9 kmh N 2.3 mph3.7 kmh 29.03 in983.1 mb - 0.00 in0.0 mm 0.00 in0.0 mm
08:30 PM 20.7°F-6.3°C 15.8°F-9.0°C 81% 3.5 mph E5.6 kmh E 3.5 mph5.6 kmh 29.03 in983.1 mb - 0.00 in0.0 mm 0.00 in0.0 mm
08:35 PM 20.6°F-6.3°C 15.7°F-9.1°C 81% 2.3 mph ENE3.7 kmh ENE 3.5 mph5.6 kmh 29.03 in983.1 mb - 0.00 in0.0 mm 0.00 in0.0 mm
08:40 PM 20.3°F-6.5°C 15.4°F-9.2°C 81% 2.3 mph ENE3.7 kmh ENE 2.3 mph3.7 kmh 29.03 in983.1 mb - 0.00 in0.0 mm 0.00 in0.0 mm
08:45 PM 20.1°F-6.6°C 15.2°F-9.3°C 81% 1.2 mph ENE1.9 kmh ENE 2.3 mph3.7 kmh 29.03 in983.1 mb - 0.00 in0.0 mm 0.00 in0.0 mm
08:50 PM 20.0°F-6.7°C 15.1°F-9.4°C 81% Calm Calm 1.2 mph1.9 kmh 29.03 in983.1 mb - 0.00 in0.0 mm 0.00 in0.0 mm
08:55 PM 19.8°F-6.8°C 14.9°F-9.5°C 81% Calm Calm -- 29.03 in983.1 mb - 0.00 in0.0 mm 0.00 in0.0 mm
09:00 PM 19.6°F-6.9°C 14.7°F-9.6°C 81% Calm Calm -- 29.03 in983.1 mb - 0.00 in0.0 mm 0.00 in0.0 mm
09:05 PM 19.3°F-7.1°C 14.4°F-9.8°C 81% Calm Calm -- 29.03 in983.1 mb - 0.00 in0.0 mm 0.00 in0.0 mm
09:10 PM 19.4°F-7.0°C 14.8°F-9.6°C 82% 1.2 mph ENE1.9 kmh ENE 3.5 mph5.6 kmh 29.04 in983.4 mb - 0.00 in0.0 mm 0.00 in0.0 mm
09:15 PM 19.7°F-6.8°C 15.1°F-9.4°C 82% Calm Calm -- 29.04 in983.4 mb - 0.00 in0.0 mm 0.00 in0.0 mm
09:20 PM 19.6°F-6.9°C 15.0°F-9.4°C 82% 1.2 mph ENE1.9 kmh ENE 2.3 mph3.7 kmh 29.04 in983.4 mb - 0.00 in0.0 mm 0.00 in0.0 mm
09:25 PM 19.4°F-7.0°C 14.8°F-9.6°C 82% Calm Calm -- 29.04 in983.4 mb - 0.00 in0.0 mm 0.00 in0.0 mm
09:30 PM 19.2°F-7.1°C 14.6°F-9.7°C 82% 2.3 mph ENE3.7 kmh ENE 3.5 mph5.6 kmh 29.04 in983.4 mb - 0.00 in0.0 mm 0.00 in0.0 mm
09:35 PM 19.2°F-7.1°C 14.6°F-9.7°C 82% Calm Calm -- 29.04 in983.4 mb - 0.00 in0.0 mm 0.00 in0.0 mm
09:40 PM 19.0°F-7.2°C 14.4°F-9.8°C 82% Calm Calm -- 29.04 in983.4 mb - 0.00 in0.0 mm 0.00 in0.0 mm
09:45 PM 19.0°F-7.2°C 14.4°F-9.8°C 82% Calm Calm -- 29.04 in983.4 mb - 0.00 in0.0 mm 0.00 in0.0 mm
09:50 PM 18.9°F-7.3°C 14.3°F-9.8°C 82% 2.3 mph E3.7 kmh E 3.5 mph5.6 kmh 29.04 in983.4 mb - 0.00 in0.0 mm 0.00 in0.0 mm
09:55 PM 18.8°F-7.3°C 14.2°F-9.9°C 82% 1.2 mph E1.9 kmh E 2.3 mph3.7 kmh 29.04 in983.4 mb - 0.00 in0.0 mm 0.00 in0.0 mm
10:00 PM 18.8°F-7.3°C 14.2°F-9.9°C 82% 1.2 mph E1.9 kmh E 3.5 mph5.6 kmh 29.04 in983.4 mb - 0.00 in0.0 mm 0.00 in0.0 mm
10:05 PM 18.8°F-7.3°C 14.2°F-9.9°C 82% 2.3 mph WSW3.7 kmh WSW 3.5 mph5.6 kmh 29.04 in983.4 mb - 0.00 in0.0 mm 0.00 in0.0 mm
10:10 PM 18.9°F-7.3°C 14.3°F-9.8°C 82% 3.5 mph W5.6 kmh W 3.5 mph5.6 kmh 29.04 in983.4 mb - 0.00 in0.0 mm 0.00 in0.0 mm
10:15 PM 19.1°F-7.2°C 14.5°F-9.7°C 82% 2.3 mph E3.7 kmh E 3.5 mph5.6 kmh 29.04 in983.4 mb - 0.00 in0.0 mm 0.00 in0.0 mm
10:20 PM 18.9°F-7.3°C 14.3°F-9.8°C 82% 1.2 mph E1.9 kmh E 3.5 mph5.6 kmh 29.05 in983.7 mb - 0.00 in0.0 mm 0.00 in0.0 mm
10:25 PM 18.6°F-7.4°C 14.0°F-10.0°C 82% 1.2 mph E1.9 kmh E 2.3 mph3.7 kmh 29.05 in983.7 mb - 0.00 in0.0 mm 0.00 in0.0 mm
10:30 PM 18.4°F-7.6°C 13.8°F-10.1°C 82% 1.2 mph E1.9 kmh E 2.3 mph3.7 kmh 29.05 in983.7 mb - 0.00 in0.0 mm 0.00 in0.0 mm
10:35 PM 18.4°F-7.6°C 13.8°F-10.1°C 82% Calm Calm 1.2 mph1.9 kmh 29.05 in983.7 mb - 0.00 in0.0 mm 0.00 in0.0 mm
10:40 PM 18.2°F-7.7°C 13.7°F-10.2°C 82% 1.2 mph E1.9 kmh E 3.5 mph5.6 kmh 29.05 in983.7 mb - 0.00 in0.0 mm 0.00 in0.0 mm
10:45 PM 18.3°F-7.6°C 13.7°F-10.2°C 82% 1.2 mph E1.9 kmh E 2.3 mph3.7 kmh 29.05 in983.7 mb - 0.00 in0.0 mm 0.00 in0.0 mm
10:50 PM 18.1°F-7.7°C 13.5°F-10.3°C 82% 2.3 mph E3.7 kmh E 3.5 mph5.6 kmh 29.06 in984.1 mb - 0.00 in0.0 mm 0.00 in0.0 mm
10:55 PM 18.2°F-7.7°C 13.6°F-10.2°C 82% 2.3 mph NE3.7 kmh NE 2.3 mph3.7 kmh 29.05 in983.7 mb - 0.00 in0.0 mm 0.00 in0.0 mm
11:00 PM 18.3°F-7.6°C 13.7°F-10.2°C 82% Calm Calm 1.2 mph1.9 kmh 29.05 in983.7 mb - 0.00 in0.0 mm 0.00 in0.0 mm
11:05 PM 18.5°F-7.5°C 13.9°F-10.1°C 82% Calm Calm -- 29.05 in983.7 mb - 0.00 in0.0 mm 0.00 in0.0 mm
11:10 PM 18.6°F-7.4°C 14.0°F-10.0°C 82% 2.3 mph NW3.7 kmh NW 3.5 mph5.6 kmh 29.05 in983.7 mb - 0.00 in0.0 mm 0.00 in0.0 mm
11:15 PM 18.7°F-7.4°C 14.1°F-9.9°C 82% 3.5 mph NE5.6 kmh NE 4.6 mph7.4 kmh 29.05 in983.7 mb - 0.00 in0.0 mm 0.00 in0.0 mm
11:20 PM 18.4°F-7.6°C 13.8°F-10.1°C 82% 3.5 mph E5.6 kmh E 3.5 mph5.6 kmh 29.05 in983.7 mb - 0.00 in0.0 mm 0.00 in0.0 mm
11:25 PM 18.2°F-7.7°C 13.6°F-10.2°C 82% 3.5 mph E5.6 kmh E 4.6 mph7.4 kmh 29.05 in983.7 mb - 0.00 in0.0 mm 0.00 in0.0 mm
11:30 PM 18.2°F-7.7°C 13.7°F-10.2°C 82% 1.2 mph E1.9 kmh E 2.3 mph3.7 kmh 29.06 in984.1 mb - 0.00 in0.0 mm 0.00 in0.0 mm
11:35 PM 18.1°F-7.7°C 13.5°F-10.3°C 82% Calm Calm 1.2 mph1.9 kmh 29.06 in984.1 mb - 0.00 in0.0 mm 0.00 in0.0 mm
11:40 PM 17.9°F-7.8°C 13.3°F-10.4°C 82% Calm Calm -- 29.06 in984.1 mb - 0.00 in0.0 mm 0.00 in0.0 mm
11:45 PM 17.8°F-7.9°C 13.2°F-10.4°C 82% Calm Calm -- 29.06 in984.1 mb - 0.00 in0.0 mm 0.00 in0.0 mm
11:50 PM 17.7°F-7.9°C 13.1°F-10.5°C 82% 1.2 mph E1.9 kmh E 3.5 mph5.6 kmh 29.06 in984.1 mb - 0.00 in0.0 mm 0.00 in0.0 mm
11:55 PM 17.6°F-8.0°C 13.0°F-10.6°C 82% Calm Calm -- 29.07 in984.4 mb - 0.00 in0.0 mm 0.00 in0.0 mm